sensor_id;sensor_type;location;lat;lon;timestamp;P1;durP1;ratioP1;P2;durP2;ratioP2
1204;SDS011;592;48.764;9.174;2024-01-16T07:15:45;5.30;;;2.30;;
1204;SDS011;592;48.764;9.174;2024-01-16T07:18:15;4.50;;;1.80;;
1204;SDS011;592;48.764;9.174;2024-01-16T07:20:43;3.90;;;1.93;;
1204;SDS011;592;48.764;9.174;2024-01-16T07:23:17;3.47;;;1.73;;
1204;SDS011;592;48.764;9.174;2024-01-16T07:25:53;4.33;;;2.13;;
1204;SDS011;592;48.764;9.174;2024-01-16T07:28:23;5.60;;;1.80;;
1204;SDS011;592;48.764;9.174;2024-01-16T07:30:55;2.77;;;1.30;;
1204;SDS011;592;48.764;9.174;2024-01-16T07:33:22;4.03;;;2.30;;
1204;SDS011;592;48.764;9.174;2024-01-16T07:35:52;3.67;;;1.90;;
1204;SDS011;592;48.764;9.174;2024-01-16T07:38:22;4.83;;;2.50;;
1204;SDS011;592;48.764;9.174;2024-01-16T07:40:52;3.20;;;1.80;;
1204;SDS011;592;48.764;9.174;2024-01-16T07:43:22;6.00;;;2.10;;
1204;SDS011;592;48.764;9.174;2024-01-16T07:45:51;4.30;;;1.83;;
1204;SDS011;592;48.764;9.174;2024-01-16T07:48:21;8.10;;;1.80;;
1204;SDS011;592;48.764;9.174;2024-01-16T07:50:55;4.73;;;2.57;;
1204;SDS011;592;48.764;9.174;2024-01-16T07:53:23;4.70;;;2.00;;
1204;SDS011;592;48.764;9.174;2024-01-16T07:55:52;5.33;;;1.70;;
1204;SDS011;592;48.764;9.174;2024-01-16T07:58:21;3.93;;;1.90;;
1204;SDS011;592;48.764;9.174;2024-01-16T08:00:59;3.87;;;1.90;;
1204;SDS011;592;48.764;9.174;2024-01-16T08:03:29;11.83;;;1.83;;
1204;SDS011;592;48.764;9.174;2024-01-16T08:06:08;3.97;;;2.07;;
1204;SDS011;592;48.764;9.174;2024-01-16T08:08:48;3.50;;;1.97;;
1204;SDS011;592;48.764;9.174;2024-01-16T08:11:16;5.80;;;2.17;;
1204;SDS011;592;48.764;9.174;2024-01-16T08:13:45;4.23;;;1.77;;
1204;SDS011;592;48.764;9.174;2024-01-16T08:16:12;4.20;;;2.30;;
1204;SDS011;592;48.764;9.174;2024-01-16T08:18:48;4.17;;;2.07;;
1204;SDS011;592;48.764;9.174;2024-01-16T08:21:17;2.93;;;1.60;;
1204;SDS011;592;48.764;9.174;2024-01-16T08:23:44;5.60;;;1.80;;
1204;SDS011;592;48.764;9.174;2024-01-16T08:26:10;3.73;;;1.90;;
1204;SDS011;592;48.764;9.174;2024-01-16T08:28:37;3.10;;;1.67;;
1204;SDS011;592;48.764;9.174;2024-01-16T08:31:04;3.93;;;2.00;;
1204;SDS011;592;48.764;9.174;2024-01-16T08:33:31;4.00;;;1.77;;
1204;SDS011;592;48.764;9.174;2024-01-16T08:35:59;3.20;;;1.63;;
1204;SDS011;592;48.764;9.174;2024-01-16T08:38:26;6.60;;;2.30;;
1204;SDS011;592;48.764;9.174;2024-01-16T08:40:53;7.47;;;1.80;;
1204;SDS011;592;48.764;9.174;2024-01-16T08:43:19;3.50;;;1.83;;
1204;SDS011;592;48.764;9.174;2024-01-16T08:45:46;2.80;;;1.37;;
1204;SDS011;592;48.764;9.174;2024-01-16T08:48:13;4.67;;;2.07;;
1204;SDS011;592;48.764;9.174;2024-01-16T08:50:41;2.50;;;1.30;;
1204;SDS011;592;48.764;9.174;2024-01-16T08:53:09;5.13;;;2.23;;
1204;SDS011;592;48.764;9.174;2024-01-16T08:55:36;3.03;;;1.40;;
1204;SDS011;592;48.764;9.174;2024-01-16T08:58:03;5.47;;;2.37;;
1204;SDS011;592;48.764;9.174;2024-01-16T09:00:29;4.43;;;1.93;;
1204;SDS011;592;48.764;9.174;2024-01-16T09:02:56;3.63;;;2.00;;
1204;SDS011;592;48.764;9.174;2024-01-16T09:05:22;6.27;;;2.57;;
1204;SDS011;592;48.764;9.174;2024-01-16T09:07:50;6.83;;;1.77;;
1204;SDS011;592;48.764;9.174;2024-01-16T09:10:18;2.57;;;1.43;;
1204;SDS011;592;48.764;9.174;2024-01-16T09:12:45;4.57;;;1.83;;
1204;SDS011;592;48.764;9.174;2024-01-16T09:15:12;10.70;;;2.13;;
1204;SDS011;592;48.764;9.174;2024-01-16T09:17:40;8.47;;;2.50;;
1204;SDS011;592;48.764;9.174;2024-01-16T09:20:07;3.73;;;2.03;;
1204;SDS011;592;48.764;9.174;2024-01-16T09:22:34;5.70;;;2.07;;
1204;SDS011;592;48.764;9.174;2024-01-16T09:25:01;5.50;;;1.80;;
1204;SDS011;592;48.764;9.174;2024-01-16T09:27:29;5.90;;;2.80;;
1204;SDS011;592;48.764;9.174;2024-01-16T09:29:56;6.93;;;2.40;;
1204;SDS011;592;48.764;9.174;2024-01-16T09:32:23;3.80;;;1.80;;
1204;SDS011;592;48.764;9.174;2024-01-16T09:34:49;5.00;;;2.23;;
1204;SDS011;592;48.764;9.174;2024-01-16T09:37:16;4.37;;;2.00;;
1204;SDS011;592;48.764;9.174;2024-01-16T09:39:43;4.87;;;2.30;;
1204;SDS011;592;48.764;9.174;2024-01-16T09:42:10;5.50;;;1.83;;
1204;SDS011;592;48.764;9.174;2024-01-16T09:44:38;6.83;;;2.23;;
1204;SDS011;592;48.764;9.174;2024-01-16T09:47:05;4.93;;;2.13;;
1204;SDS011;592;48.764;9.174;2024-01-16T09:49:34;5.10;;;2.27;;
1204;SDS011;592;48.764;9.174;2024-01-16T09:52:01;5.63;;;2.00;;
1204;SDS011;592;48.764;9.174;2024-01-16T09:54:28;8.60;;;2.40;;
1204;SDS011;592;48.764;9.174;2024-01-16T09:56:56;4.67;;;2.40;;
1204;SDS011;592;48.764;9.174;2024-01-16T09:59:24;3.97;;;2.33;;
1204;SDS011;592;48.764;9.174;2024-01-16T10:01:55;6.70;;;2.00;;
1204;SDS011;592;48.764;9.174;2024-01-16T10:04:23;6.30;;;1.83;;
1204;SDS011;592;48.764;9.174;2024-01-16T10:06:50;4.10;;;2.20;;
1204;SDS011;592;48.764;9.174;2024-01-16T10:09:22;5.20;;;2.53;;
1204;SDS011;592;48.764;9.174;2024-01-16T10:11:50;8.40;;;2.10;;
1204;SDS011;592;48.764;9.174;2024-01-16T10:14:22;4.37;;;1.73;;
1204;SDS011;592;48.764;9.174;2024-01-16T10:16:58;5.97;;;2.00;;
1204;SDS011;592;48.764;9.174;2024-01-16T10:19:28;6.87;;;2.10;;
1204;SDS011;592;48.764;9.174;2024-01-16T10:22:00;6.27;;;2.00;;
1204;SDS011;592;48.764;9.174;2024-01-16T10:24:28;4.00;;;2.00;;
1204;SDS011;592;48.764;9.174;2024-01-16T10:26:57;4.60;;;2.50;;
1204;SDS011;592;48.764;9.174;2024-01-16T10:29:26;4.70;;;2.03;;
1204;SDS011;592;48.764;9.174;2024-01-16T10:31:53;3.60;;;1.90;;
1204;SDS011;592;48.764;9.174;2024-01-16T10:34:21;3.90;;;1.73;;
1204;SDS011;592;48.764;9.174;2024-01-16T10:36:49;7.60;;;1.93;;
1204;SDS011;592;48.764;9.174;2024-01-16T10:39:16;5.00;;;1.83;;
1204;SDS011;592;48.764;9.174;2024-01-16T10:41:48;4.10;;;2.07;;
1204;SDS011;592;48.764;9.174;2024-01-16T10:44:20;4.33;;;1.97;;
1204;SDS011;592;48.764;9.174;2024-01-16T10:46:46;4.20;;;1.77;;
1204;SDS011;592;48.764;9.174;2024-01-16T10:49:16;4.10;;;1.77;;
1204;SDS011;592;48.764;9.174;2024-01-16T10:51:44;3.63;;;1.73;;
1204;SDS011;592;48.764;9.174;2024-01-16T10:54:12;3.40;;;1.60;;
1204;SDS011;592;48.764;9.174;2024-01-16T10:56:41;4.40;;;1.60;;
1204;SDS011;592;48.764;9.174;2024-01-16T10:59:12;3.67;;;1.47;;
1204;SDS011;592;48.764;9.174;2024-01-16T11:01:45;5.73;;;1.93;;
1204;SDS011;592;48.764;9.174;2024-01-16T11:04:15;2.63;;;0.97;;
1204;SDS011;592;48.764;9.174;2024-01-16T11:06:42;4.13;;;1.53;;
1204;SDS011;592;48.764;9.174;2024-01-16T11:09:12;10.60;;;2.23;;
1204;SDS011;592;48.764;9.174;2024-01-16T11:11:40;3.40;;;1.23;;
1204;SDS011;592;48.764;9.174;2024-01-16T11:14:09;5.83;;;1.83;;
1204;SDS011;592;48.764;9.174;2024-01-16T11:16:38;3.90;;;1.47;;
1204;SDS011;592;48.764;9.174;2024-01-16T11:19:07;4.83;;;1.87;;
1204;SDS011;592;48.764;9.174;2024-01-16T11:21:34;3.13;;;1.83;;
1204;SDS011;592;48.764;9.174;2024-01-16T11:24:03;7.07;;;1.57;;
1204;SDS011;592;48.764;9.174;2024-01-16T11:26:31;3.03;;;1.23;;
1204;SDS011;592;48.764;9.174;2024-01-16T11:28:58;2.57;;;1.23;;
1204;SDS011;592;48.764;9.174;2024-01-16T11:31:29;4.20;;;1.57;;
1204;SDS011;592;48.764;9.174;2024-01-16T11:33:57;5.47;;;1.57;;
1204;SDS011;592;48.764;9.174;2024-01-16T11:39:20;5.03;;;1.90;;
1204;SDS011;592;48.764;9.174;2024-01-16T11:41:54;2.97;;;1.60;;
1204;SDS011;592;48.764;9.174;2024-01-16T11:44:41;4.00;;;1.67;;
1204;SDS011;592;48.764;9.174;2024-01-16T11:47:16;2.70;;;1.30;;
1204;SDS011;592;48.764;9.174;2024-01-16T11:49:44;5.30;;;1.70;;
1204;SDS011;592;48.764;9.174;2024-01-16T11:52:11;2.90;;;1.47;;
1204;SDS011;592;48.764;9.174;2024-01-16T11:54:39;4.37;;;1.37;;
1204;SDS011;592;48.764;9.174;2024-01-16T11:57:19;4.00;;;1.50;;
1204;SDS011;592;48.764;9.174;2024-01-16T11:59:57;5.13;;;1.70;;
1204;SDS011;592;48.764;9.174;2024-01-16T12:02:26;6.70;;;1.90;;
1204;SDS011;592;48.764;9.174;2024-01-16T12:05:12;3.87;;;1.23;;
1204;SDS011;592;48.764;9.174;2024-01-16T12:07:42;3.67;;;1.40;;
1204;SDS011;592;48.764;9.174;2024-01-16T12:10:13;2.77;;;1.27;;
1204;SDS011;592;48.764;9.174;2024-01-16T12:12:40;3.37;;;1.30;;
1204;SDS011;592;48.764;9.174;2024-01-16T12:15:07;5.80;;;1.60;;
1204;SDS011;592;48.764;9.174;2024-01-16T12:17:50;3.40;;;1.50;;
1204;SDS011;592;48.764;9.174;2024-01-16T12:20:34;3.60;;;1.77;;
1204;SDS011;592;48.764;9.174;2024-01-16T12:23:25;8.63;;;1.63;;
1204;SDS011;592;48.764;9.174;2024-01-16T12:29:35;4.60;;;1.77;;
1204;SDS011;592;48.764;9.174;2024-01-16T12:32:05;3.03;;;1.20;;
1204;SDS011;592;48.764;9.174;2024-01-16T12:34:34;5.00;;;1.43;;
1204;SDS011;592;48.764;9.174;2024-01-16T12:37:10;3.60;;;1.50;;
1204;SDS011;592;48.764;9.174;2024-01-16T13:26:35;4.10;;;1.40;;
1204;SDS011;592;48.764;9.174;2024-01-16T13:54:58;2.37;;;1.17;;
1204;SDS011;592;48.764;9.174;2024-01-16T13:57:31;4.27;;;1.40;;
1204;SDS011;592;48.764;9.174;2024-01-16T16:54:53;8.07;;;2.47;;
1204;SDS011;592;48.764;9.174;2024-01-16T17:08:24;5.50;;;3.00;;
1204;SDS011;592;48.764;9.174;2024-01-16T17:52:54;11.03;;;6.20;;
1204;SDS011;592;48.764;9.174;2024-01-16T20:16:51;10.97;;;5.20;;
1204;SDS011;592;48.764;9.174;2024-01-16T20:19:17;11.53;;;5.23;;
1204;SDS011;592;48.764;9.174;2024-01-16T20:21:44;9.03;;;4.57;;
1204;SDS011;592;48.764;9.174;2024-01-16T20:24:12;10.07;;;6.17;;
1204;SDS011;592;48.764;9.174;2024-01-16T20:26:40;8.80;;;5.20;;
1204;SDS011;592;48.764;9.174;2024-01-16T20:29:07;11.50;;;5.87;;
1204;SDS011;592;48.764;9.174;2024-01-16T20:31:35;9.70;;;4.87;;
1204;SDS011;592;48.764;9.174;2024-01-16T20:34:03;7.97;;;4.83;;
1204;SDS011;592;48.764;9.174;2024-01-16T20:36:30;6.73;;;4.37;;
1204;SDS011;592;48.764;9.174;2024-01-16T20:38:57;12.30;;;4.20;;
1204;SDS011;592;48.764;9.174;2024-01-16T20:41:23;12.40;;;6.07;;
1204;SDS011;592;48.764;9.174;2024-01-16T20:43:51;7.70;;;4.80;;
1204;SDS011;592;48.764;9.174;2024-01-16T20:46:21;9.83;;;4.60;;
1204;SDS011;592;48.764;9.174;2024-01-16T20:48:48;9.17;;;5.13;;
1204;SDS011;592;48.764;9.174;2024-01-16T20:51:14;12.20;;;5.50;;
1204;SDS011;592;48.764;9.174;2024-01-16T20:53:41;7.33;;;4.23;;
1204;SDS011;592;48.764;9.174;2024-01-16T20:56:11;13.93;;;5.47;;
1204;SDS011;592;48.764;9.174;2024-01-16T20:58:38;8.03;;;4.90;;
1204;SDS011;592;48.764;9.174;2024-01-16T21:01:08;10.20;;;5.60;;
1204;SDS011;592;48.764;9.174;2024-01-16T21:03:37;13.13;;;5.77;;
1204;SDS011;592;48.764;9.174;2024-01-16T21:06:03;10.63;;;5.13;;
1204;SDS011;592;48.764;9.174;2024-01-16T21:08:31;11.10;;;4.93;;
1204;SDS011;592;48.764;9.174;2024-01-16T21:10:58;21.63;;;7.40;;
1204;SDS011;592;48.764;9.174;2024-01-16T21:13:25;8.30;;;4.93;;
1204;SDS011;592;48.764;9.174;2024-01-16T21:15:53;7.80;;;5.60;;
1204;SDS011;592;48.764;9.174;2024-01-16T21:18:26;11.20;;;6.20;;
1204;SDS011;592;48.764;9.174;2024-01-16T21:20:55;12.40;;;5.03;;
1204;SDS011;592;48.764;9.174;2024-01-16T21:23:22;12.90;;;6.00;;
1204;SDS011;592;48.764;9.174;2024-01-16T21:25:49;10.87;;;5.53;;
1204;SDS011;592;48.764;9.174;2024-01-16T21:28:15;14.40;;;5.80;;
1204;SDS011;592;48.764;9.174;2024-01-16T21:30:44;13.13;;;5.60;;
1204;SDS011;592;48.764;9.174;2024-01-16T21:33:11;10.93;;;5.57;;
1204;SDS011;592;48.764;9.174;2024-01-16T21:35:41;8.93;;;5.13;;
1204;SDS011;592;48.764;9.174;2024-01-16T21:38:07;10.03;;;5.30;;
1204;SDS011;592;48.764;9.174;2024-01-16T21:40:37;15.10;;;6.20;;
1204;SDS011;592;48.764;9.174;2024-01-16T21:43:04;9.97;;;4.77;;
1204;SDS011;592;48.764;9.174;2024-01-16T21:45:30;8.23;;;4.70;;
1204;SDS011;592;48.764;9.174;2024-01-16T21:47:57;9.07;;;5.10;;
1204;SDS011;592;48.764;9.174;2024-01-16T21:50:24;11.67;;;4.50;;
1204;SDS011;592;48.764;9.174;2024-01-16T21:52:52;10.90;;;5.60;;
1204;SDS011;592;48.764;9.174;2024-01-16T21:55:19;7.80;;;4.70;;
1204;SDS011;592;48.764;9.174;2024-01-16T21:57:47;9.87;;;5.53;;
1204;SDS011;592;48.764;9.174;2024-01-16T22:00:14;9.20;;;4.57;;
1204;SDS011;592;48.764;9.174;2024-01-16T22:02:41;13.60;;;5.70;;
1204;SDS011;592;48.764;9.174;2024-01-16T22:05:08;10.40;;;5.60;;
1204;SDS011;592;48.764;9.174;2024-01-16T22:07:35;9.30;;;5.50;;
1204;SDS011;592;48.764;9.174;2024-01-16T22:10:04;11.40;;;6.20;;
1204;SDS011;592;48.764;9.174;2024-01-16T22:12:31;18.23;;;6.87;;
1204;SDS011;592;48.764;9.174;2024-01-16T22:14:58;8.93;;;5.50;;
1204;SDS011;592;48.764;9.174;2024-01-16T22:17:25;18.40;;;6.07;;
1204;SDS011;592;48.764;9.174;2024-01-16T22:19:54;9.73;;;5.60;;
1204;SDS011;592;48.764;9.174;2024-01-16T22:22:20;9.70;;;5.90;;
1204;SDS011;592;48.764;9.174;2024-01-16T22:24:47;8.13;;;4.70;;
1204;SDS011;592;48.764;9.174;2024-01-16T22:27:15;10.00;;;4.90;;
1204;SDS011;592;48.764;9.174;2024-01-16T22:29:43;11.90;;;6.27;;
1204;SDS011;592;48.764;9.174;2024-01-16T22:32:09;16.33;;;6.90;;
1204;SDS011;592;48.764;9.174;2024-01-16T22:34:36;8.80;;;4.83;;
1204;SDS011;592;48.764;9.174;2024-01-16T22:37:03;7.63;;;4.83;;
1204;SDS011;592;48.764;9.174;2024-01-16T22:39:32;6.40;;;4.63;;
1204;SDS011;592;48.764;9.174;2024-01-16T22:41:59;9.10;;;5.40;;
1204;SDS011;592;48.764;9.174;2024-01-16T22:44:27;12.50;;;5.83;;
1204;SDS011;592;48.764;9.174;2024-01-16T22:46:54;14.30;;;5.60;;
1204;SDS011;592;48.764;9.174;2024-01-16T22:49:21;9.40;;;5.07;;
1204;SDS011;592;48.764;9.174;2024-01-16T22:51:48;13.97;;;4.80;;
1204;SDS011;592;48.764;9.174;2024-01-16T22:54:15;8.17;;;5.00;;
1204;SDS011;592;48.764;9.174;2024-01-16T22:56:42;10.40;;;5.93;;
1204;SDS011;592;48.764;9.174;2024-01-16T22:59:08;10.33;;;5.70;;
1204;SDS011;592;48.764;9.174;2024-01-16T23:01:37;11.93;;;6.13;;
1204;SDS011;592;48.764;9.174;2024-01-16T23:04:03;10.83;;;5.50;;
1204;SDS011;592;48.764;9.174;2024-01-16T23:06:33;9.03;;;5.20;;
1204;SDS011;592;48.764;9.174;2024-01-16T23:09:00;9.70;;;4.80;;
1204;SDS011;592;48.764;9.174;2024-01-16T23:11:30;9.63;;;5.80;;
1204;SDS011;592;48.764;9.174;2024-01-16T23:13:57;21.73;;;6.43;;
1204;SDS011;592;48.764;9.174;2024-01-16T23:16:25;21.93;;;5.77;;
1204;SDS011;592;48.764;9.174;2024-01-16T23:18:54;9.80;;;5.17;;
1204;SDS011;592;48.764;9.174;2024-01-16T23:21:20;13.07;;;5.40;;
1204;SDS011;592;48.764;9.174;2024-01-16T23:23:49;12.50;;;5.80;;
1204;SDS011;592;48.764;9.174;2024-01-16T23:26:16;7.57;;;4.50;;
1204;SDS011;592;48.764;9.174;2024-01-16T23:28:43;8.37;;;5.40;;
1204;SDS011;592;48.764;9.174;2024-01-16T23:31:09;11.13;;;6.07;;
1204;SDS011;592;48.764;9.174;2024-01-16T23:33:36;10.97;;;6.43;;
1204;SDS011;592;48.764;9.174;2024-01-16T23:36:05;10.90;;;5.40;;
1204;SDS011;592;48.764;9.174;2024-01-16T23:38:32;11.33;;;5.13;;
1204;SDS011;592;48.764;9.174;2024-01-16T23:41:01;12.53;;;6.30;;
1204;SDS011;592;48.764;9.174;2024-01-16T23:43:29;10.57;;;6.03;;
1204;SDS011;592;48.764;9.174;2024-01-16T23:45:58;9.07;;;4.80;;
1204;SDS011;592;48.764;9.174;2024-01-16T23:48:25;5.97;;;4.27;;
1204;SDS011;592;48.764;9.174;2024-01-16T23:50:52;7.47;;;4.63;;
1204;SDS011;592;48.764;9.174;2024-01-16T23:53:20;7.63;;;5.20;;
1204;SDS011;592;48.764;9.174;2024-01-16T23:55:47;10.03;;;5.50;;
1204;SDS011;592;48.764;9.174;2024-01-16T23:58:16;11.83;;;6.20;;
